Time;durP1;ratioP1;P1;durP2;ratioP2;P2;SDS_P1;SDS_P2;PMS_P1;PMS_P2;Temp;Humidity;BMP_temperature;BMP_pressure;BME280_temperature;BME280_humidity;BME280_pressure;Samples;Min_cycle;Max_cycle;Signal;HPM_P1;HPM_P2
2022/10/22 00:01:06;;;;;;;5.68;3.05;;;4.70;1.00;;;4.83;89.52;99507.41;5021387;28;129826;-74
2022/10/22 00:03:36;;;;;;;6.22;3.10;;;4.70;1.00;;;4.78;89.47;99502.06;5040229;27;129259;-75
2022/10/22 00:06:05;;;;;;;4.28;2.58;;;4.70;1.00;;;4.73;89.98;99485.97;5021168;28;118683;-76
2022/10/22 00:08:34;;;;;;;5.75;2.97;;;4.70;1.00;;;4.72;90.21;99487.03;5023915;28;116219;-77
2022/10/22 00:11:10;;;;;;;7.57;3.28;;;4.70;1.00;;;4.69;90.62;99485.72;5025011;28;130167;-76
2022/10/22 00:13:39;;;;;;;5.65;3.22;;;4.70;1.00;;;4.70;90.84;99487.28;5022206;28;129475;-80
2022/10/22 00:16:08;;;;;;;7.40;3.40;;;4.70;1.00;;;4.71;90.17;99470.09;5022499;28;119082;-77
2022/10/22 00:18:39;;;;;;;7.40;3.45;;;4.70;1.00;;;4.78;89.91;99464.41;5023858;27;115207;-78
2022/10/22 00:21:09;;;;;;;6.22;3.40;;;4.60;1.00;;;4.76;89.81;99459.31;5027985;28;129211;-76
2022/10/22 00:23:40;;;;;;;7.22;3.60;;;4.70;1.00;;;4.77;90.14;99457.44;5026952;28;129532;-77
2022/10/22 00:26:10;;;;;;;7.60;3.70;;;4.60;1.00;;;4.68;90.64;99449.94;5027339;28;118523;-82
2022/10/22 00:28:39;;;;;;;5.50;3.10;;;4.70;1.00;;;4.71;90.99;99428.97;5028142;28;114791;-75
2022/10/22 00:31:07;;;;;;;6.13;3.72;;;4.70;1.00;;;4.73;90.81;99434.88;5024475;28;130142;-77
2022/10/22 00:33:37;;;;;;;5.32;2.97;;;4.70;1.00;;;4.71;90.75;99428.97;5023347;28;129403;-76
2022/10/22 00:36:06;;;;;;;6.10;3.20;;;4.60;1.00;;;4.71;90.97;99434.34;5008502;28;118552;-77
2022/10/22 00:38:36;;;;;;;8.80;3.10;;;4.60;1.00;;;4.74;91.09;99428.44;5026119;28;114722;-74
2022/10/22 00:41:04;;;;;;;6.55;3.50;;;4.60;1.00;;;4.66;91.34;99433.28;5025392;28;128951;-75
2022/10/22 00:43:33;;;;;;;5.75;3.28;;;4.60;1.00;;;4.66;91.69;99427.09;5025369;28;129048;-74
2022/10/22 00:46:01;;;;;;;5.85;3.22;;;4.60;1.00;;;4.67;91.42;99423.31;5023678;28;119269;-74
2022/10/22 00:48:33;;;;;;;5.57;3.05;;;4.60;1.00;;;4.67;91.56;99424.16;5057339;27;114975;-75
2022/10/22 00:51:06;;;;;;;6.63;3.60;;;4.60;1.00;;;4.67;91.34;99424.16;5023444;28;130327;-73
2022/10/22 00:53:39;;;;;;;6.57;3.38;;;4.60;1.00;;;4.67;91.37;99418.78;5025421;28;128282;-75
2022/10/22 00:56:09;;;;;;;9.15;3.63;;;4.50;1.00;;;4.68;91.35;99412.28;5025668;28;118433;-76
2022/10/22 00:58:42;;;;;;;7.75;3.67;;;4.50;1.00;;;4.68;91.53;99420.38;5024126;28;115108;-75
2022/10/22 01:01:18;;;;;;;5.75;3.05;;;4.50;1.00;;;4.67;91.57;99413.41;5023153;28;129874;-76
2022/10/22 01:03:47;;;;;;;6.30;3.20;;;4.50;1.00;;;4.65;91.99;99399.41;5023333;28;130267;-75
2022/10/22 01:06:24;;;;;;;5.10;3.08;;;4.50;1.00;;;4.63;92.06;99406.94;5022987;28;119240;-75
2022/10/22 01:09:07;;;;;;;9.05;3.47;;;4.50;1.00;;;4.62;92.12;99397.25;5009331;28;113755;-75
2022/10/22 01:11:52;;;;;;;5.90;2.97;;;4.50;1.00;;;4.56;92.41;99401.03;5023801;28;129815;-77
2022/10/22 01:14:28;;;;;;;6.90;3.60;;;4.40;1.00;;;4.55;92.75;99410.22;5023778;28;129845;-77
2022/10/22 01:17:03;;;;;;;7.15;3.67;;;4.40;1.00;;;4.55;92.90;99394.06;5021996;28;119209;-74
2022/10/22 01:19:57;;;;;;;6.53;3.25;;;4.40;1.00;;;4.48;92.86;99386.28;5024757;28;115780;-76
2022/10/22 01:22:34;;;;;;;8.35;3.30;;;4.40;1.00;;;4.54;93.17;99381.72;5027024;28;129906;-77
2022/10/22 01:25:12;;;;;;;6.25;3.05;;;4.40;1.00;;;4.59;92.61;99378.19;5023828;28;130056;-75
2022/10/22 01:28:00;;;;;;;7.68;3.40;;;4.40;1.00;;;4.53;92.78;99376.59;5024960;28;118691;-75
2022/10/22 01:30:30;;;;;;;5.93;3.20;;;4.40;1.00;;;4.47;93.68;99375.81;5024467;28;114678;-75
2022/10/22 01:33:03;;;;;;;5.95;2.90;;;4.40;1.00;;;4.43;93.64;99364.03;5025005;28;130443;-75
2022/10/22 01:35:37;;;;;;;5.75;3.25;;;4.40;1.00;;;4.47;93.66;99351.63;5007878;28;128168;-76
2022/10/22 01:38:10;;;;;;;7.28;3.35;;;4.40;1.00;;;4.50;93.28;99351.91;5021660;28;120109;-76
2022/10/22 01:40:39;;;;;;;5.68;3.25;;;4.40;1.00;;;4.54;93.45;99360.22;5027182;28;113556;-75
2022/10/22 01:43:11;;;;;;;5.65;3.22;;;4.40;1.00;;;4.52;93.28;99350.81;5024105;28;129946;-73
2022/10/22 01:45:46;;;;;;;6.63;3.10;;;4.40;1.00;;;4.46;93.67;99344.66;5024802;28;129077;-80
2022/10/22 01:48:34;;;;;;;7.35;3.53;;;4.40;1.00;;;4.45;93.43;99343.03;5023754;28;119259;-76
2022/10/22 01:51:34;;;;;;;5.75;3.40;;;4.40;1.00;;;4.45;93.69;99334.97;5025255;28;114178;-76
2022/10/22 01:54:17;;;;;;;6.22;3.13;;;4.40;1.00;;;4.48;93.73;99343.28;5020710;27;129577;-75
2022/10/22 01:57:05;;;;;;;9.13;3.95;;;4.30;1.00;;;4.54;93.25;99333.34;5021888;28;129554;-74
2022/10/22 01:59:48;;;;;;;5.90;3.75;;;4.40;1.00;;;4.49;94.27;99330.69;5022821;28;120054;-76
2022/10/22 02:02:34;;;;;;;6.90;3.17;;;4.40;1.00;;;4.45;94.06;99321.53;5029217;28;113637;-75
2022/10/22 02:05:10;;;;;;;6.35;3.17;;;4.30;1.00;;;4.43;94.32;99323.72;5021842;28;129786;-77
2022/10/22 02:07:47;;;;;;;7.07;2.85;;;4.30;1.00;;;4.42;94.72;99327.47;5022599;28;130236;-80
2022/10/22 02:10:17;;;;;;;6.55;3.65;;;4.30;1.00;;;4.43;94.58;99326.41;5022179;28;119209;-74
2022/10/22 02:12:50;;;;;;;6.32;3.22;;;4.30;1.00;;;4.42;94.47;99327.47;5024136;28;116314;-78
2022/10/22 02:15:21;;;;;;;8.10;3.08;;;4.30;1.00;;;4.41;94.38;99323.16;5023784;28;129733;-74
2022/10/22 02:17:53;;;;;;;6.30;3.15;;;4.30;1.00;;;4.48;93.92;99323.69;5024297;28;129493;-78
2022/10/22 02:20:27;;;;;;;6.82;3.40;;;4.30;1.00;;;4.43;94.22;99321.81;5025934;28;119050;-76
2022/10/22 02:22:57;;;;;;;6.13;3.28;;;4.30;1.00;;;4.47;94.56;99311.31;5026606;28;114270;-77
2022/10/22 02:25:30;;;;;;;6.38;3.20;;;4.30;1.00;;;4.43;94.62;99318.34;5025162;28;129886;-75
2022/10/22 02:28:04;;;;;;;5.40;3.00;;;4.30;1.00;;;4.41;94.56;99324.00;5008374;28;128547;-74
2022/10/22 02:30:36;;;;;;;8.30;3.17;;;4.30;1.00;;;4.43;94.45;99326.41;5024125;28;120236;-76
2022/10/22 02:33:13;;;;;;;6.43;3.15;;;4.30;1.00;;;4.43;94.91;99342.53;5024211;28;114297;-75
2022/10/22 02:35:42;;;;;;;8.40;4.07;;;4.30;1.00;;;4.45;94.74;99334.97;5022876;28;129138;-75
2022/10/22 02:38:13;;;;;;;6.43;3.47;;;4.20;1.00;;;4.43;94.62;99321.03;5024890;28;128910;-76
2022/10/22 02:40:41;;;;;;;6.05;3.30;;;4.30;1.00;;;4.36;94.38;99299.00;5023689;28;119389;-74
2022/10/22 02:43:10;;;;;;;5.03;3.08;;;4.20;1.00;;;4.28;95.03;99292.31;5007625;28;114020;-75
2022/10/22 02:45:38;;;;;;;7.28;3.70;;;4.30;1.00;;;4.25;95.86;99325.91;5024878;28;128684;-74
2022/10/22 02:48:08;;;;;;;6.10;3.58;;;4.20;1.00;;;4.32;95.53;99326.41;5007274;28;128851;-77
2022/10/22 02:50:37;;;;;;;6.85;3.10;;;4.20;1.00;;;4.38;95.34;99324.53;5007428;28;118006;-74
2022/10/22 02:53:06;;;;;;;6.38;3.35;;;4.20;1.00;;;4.39;94.97;99319.97;5024570;28;114661;-73
2022/10/22 02:55:34;;;;;;;8.00;3.75;;;4.20;1.00;;;4.43;94.62;99329.09;5020354;28;129891;-75
2022/10/22 02:58:02;;;;;;;7.78;3.28;;;4.20;1.00;;;4.37;95.39;99328.28;5022360;28;129564;-76
2022/10/22 03:00:31;;;;;;;7.85;3.30;;;4.20;1.00;;;4.38;95.24;99323.72;5021970;28;118840;-77
2022/10/22 03:03:00;;;;;;;10.13;3.35;;;4.20;1.00;;;4.36;95.30;99320.50;5024467;28;116189;-74
2022/10/22 03:05:30;;;;;;;8.90;3.70;;;4.20;1.00;;;4.36;95.66;99317.81;5022608;28;130156;-75
2022/10/22 03:07:58;;;;;;;7.95;3.95;;;4.20;1.00;;;4.42;94.99;99303.28;5022137;28;129639;-75
2022/10/22 03:10:27;;;;;;;5.45;3.17;;;4.20;1.00;;;4.37;95.22;99317.53;5025212;28;117147;-74
2022/10/22 03:12:56;;;;;;;6.93;3.28;;;4.20;1.00;;;4.36;95.25;99304.38;5024018;28;114489;-74
2022/10/22 03:15:24;;;;;;;6.22;3.22;;;4.20;1.00;;;4.32;95.34;99310.31;5022691;28;129127;-75
2022/10/22 03:17:52;;;;;;;7.25;3.53;;;4.20;1.00;;;4.34;95.58;99301.97;5020398;28;129782;-73
2022/10/22 03:20:21;;;;;;;7.15;4.00;;;4.20;1.00;;;4.34;95.34;99301.19;5023502;28;118064;-75
2022/10/22 03:22:51;;;;;;;7.63;3.60;;;4.20;1.00;;;4.26;95.48;99306.03;5058341;27;115196;-76
2022/10/22 03:25:25;;;;;;;11.00;4.50;;;4.20;1.00;;;4.25;95.75;99304.41;5005713;28;129152;-74
2022/10/22 03:28:01;;;;;;;6.50;3.80;;;4.20;1.00;;;4.23;96.27;99311.94;5022453;28;128111;-75
2022/10/22 03:30:30;;;;;;;6.63;3.40;;;4.20;1.00;;;4.25;96.01;99325.91;5006755;28;118224;-74
2022/10/22 03:32:59;;;;;;;6.07;3.50;;;4.20;1.00;;;4.32;95.65;99314.88;5023989;28;113957;-77
2022/10/22 03:35:27;;;;;;;6.47;3.47;;;4.20;1.00;;;4.35;95.31;99308.13;5020577;28;130124;-75
2022/10/22 03:37:59;;;;;;;8.55;3.90;;;4.10;1.00;;;4.31;95.33;99311.38;5020742;28;129912;-75
2022/10/22 03:40:28;;;;;;;7.83;4.00;;;4.10;1.00;;;4.25;95.33;99304.41;5006691;28;118454;-76
2022/10/22 03:42:56;;;;;;;7.88;3.78;;;4.10;1.00;;;4.26;95.38;99299.84;5021871;28;115441;-73
2022/10/22 03:45:25;;;;;;;13.10;3.88;;;4.20;1.00;;;4.23;95.22;99300.41;5024047;28;129895;-75
2022/10/22 03:47:53;;;;;;;6.97;3.90;;;4.10;1.00;;;4.26;95.20;99295.28;5020539;28;129415;-75
2022/10/22 03:50:22;;;;;;;8.57;3.88;;;4.10;1.00;;;4.28;95.30;99287.75;5030173;28;117953;-75
2022/10/22 03:52:52;;;;;;;8.27;4.07;;;4.10;1.00;;;4.29;94.96;99278.63;5030672;27;114985;-77
2022/10/22 03:55:22;;;;;;;7.70;4.13;;;4.10;1.00;;;4.28;95.30;99282.38;5029283;28;129507;-75
2022/10/22 03:57:50;;;;;;;7.15;4.10;;;4.10;1.00;;;4.26;96.00;99278.38;5031172;28;128490;-75
2022/10/22 04:00:20;;;;;;;6.50;4.32;;;4.10;1.00;;;4.27;95.33;99290.69;5024569;28;119103;-74
2022/10/22 04:02:48;;;;;;;7.38;4.40;;;4.10;1.00;;;4.30;95.05;99290.97;5025080;28;115185;-74
2022/10/22 04:05:17;;;;;;;7.13;4.18;;;4.10;1.00;;;4.28;95.01;99287.75;5026285;28;129594;-79
2022/10/22 04:07:46;;;;;;;7.32;4.15;;;4.10;1.00;;;4.24;95.47;99273.28;5028616;28;129595;-75
2022/10/22 04:10:14;;;;;;;8.82;4.20;;;4.10;1.00;;;4.23;95.06;99274.34;5026522;28;119019;-74
2022/10/22 04:12:47;;;;;;;8.68;4.55;;;4.10;1.00;;;4.20;95.51;99279.47;5027426;28;115222;-75
2022/10/22 04:15:16;;;;;;;7.32;4.57;;;4.10;1.00;;;4.23;96.07;99281.59;5030297;28;129793;-77
2022/10/22 04:17:45;;;;;;;8.50;5.85;;;4.10;1.00;;;4.28;95.54;99282.38;5025965;28;129703;-77
2022/10/22 04:20:14;;;;;;;11.43;6.22;;;4.10;1.00;;;4.21;95.28;99281.88;5024868;28;119626;-75
2022/10/22 04:22:42;;;;;;;7.85;5.43;;;4.10;1.00;;;4.21;95.72;99276.50;5011750;28;113952;-75
2022/10/22 04:25:11;;;;;;;8.98;5.57;;;4.10;1.00;;;4.22;95.41;99283.47;5026372;28;130729;-76
2022/10/22 04:27:39;;;;;;;9.68;6.10;;;4.10;1.00;;;4.21;96.15;99287.25;5031601;28;129182;-81
2022/10/22 04:30:11;;;;;;;8.25;5.50;;;4.10;1.00;;;4.22;95.96;99280.78;5028139;28;118326;-76
2022/10/22 04:32:39;;;;;;;8.55;5.63;;;4.10;1.00;;;4.25;95.41;99287.50;5026356;28;115105;-79
2022/10/22 04:35:08;;;;;;;9.52;5.40;;;4.10;1.00;;;4.22;95.49;99278.09;5024282;28;130262;-78
2022/10/22 04:37:37;;;;;;;8.90;5.45;;;4.10;1.00;;;4.19;95.97;99273.28;5027426;28;128933;-75
2022/10/22 04:40:07;;;;;;;8.27;5.43;;;4.10;1.00;;;4.25;95.94;99272.16;5026938;28;117992;-74
2022/10/22 04:42:36;;;;;;;7.55;4.85;;;4.10;1.00;;;4.28;95.55;99271.63;5024328;28;115866;-74
2022/10/22 04:45:05;;;;;;;6.38;4.20;;;4.10;1.00;;;4.27;95.50;99275.41;5024510;28;130678;-75
2022/10/22 04:47:35;;;;;;;8.40;4.82;;;4.10;1.00;;;4.31;95.81;99273.75;5012384;28;129180;-77
2022/10/22 04:50:05;;;;;;;7.43;4.30;;;4.10;1.00;;;4.37;95.31;99271.88;5026528;28;119497;-75
2022/10/22 04:52:34;;;;;;;7.93;4.53;;;4.10;1.00;;;4.39;94.84;99260.84;5025469;28;114200;-75
2022/10/22 04:55:02;;;;;;;7.65;4.57;;;4.10;1.00;;;4.39;95.36;99261.63;5024437;28;129846;-74
2022/10/22 04:57:31;;;;;;;7.47;4.30;;;4.10;1.00;;;4.41;95.44;99269.41;5027442;28;129984;-75
2022/10/22 04:59:59;;;;;;;9.30;4.63;;;4.10;1.00;;;4.43;94.81;99256.53;5030589;28;117771;-75
2022/10/22 05:02:28;;;;;;;8.75;4.30;;;4.10;1.00;;;4.40;95.11;99246.34;5011816;28;113830;-76
2022/10/22 05:04:58;;;;;;;7.40;4.10;;;4.10;1.00;;;4.36;95.12;99229.94;5024124;27;130365;-76
2022/10/22 05:07:27;;;;;;;7.03;4.30;;;4.10;1.00;;;4.32;95.11;99235.06;5026292;28;127317;-75
2022/10/22 05:09:55;;;;;;;6.97;4.03;;;4.10;1.00;;;4.31;95.39;99243.41;5011743;28;118580;-78
2022/10/22 05:12:24;;;;;;;8.88;4.70;;;4.10;1.00;;;4.31;95.97;99240.72;5026502;28;116120;-75
2022/10/22 05:14:53;;;;;;;8.50;4.53;;;4.10;1.00;;;4.34;95.47;99225.94;5022484;28;129957;-74
2022/10/22 05:17:21;;;;;;;9.20;4.32;;;4.10;1.00;;;4.36;96.04;99231.84;5021698;28;129486;-76
2022/10/22 05:19:50;;;;;;;10.15;4.78;;;4.10;1.00;;;4.38;95.99;99227.81;5007920;28;118361;-76
2022/10/22 05:22:20;;;;;;;9.02;4.30;;;4.20;1.00;;;4.38;95.99;99221.59;5025628;28;114343;-76
2022/10/22 05:24:49;;;;;;;7.15;4.15;;;4.20;1.00;;;4.37;95.94;99231.56;5022567;28;129774;-73
2022/10/22 05:27:17;;;;;;;10.40;5.00;;;4.20;1.00;;;4.38;95.18;99233.19;5022782;28;129903;-78
2022/10/22 05:29:45;;;;;;;9.82;4.72;;;4.20;1.00;;;4.43;95.38;99237.72;5025049;28;117944;-75
2022/10/22 05:32:14;;;;;;;9.93;4.82;;;4.20;1.00;;;4.48;95.36;99235.00;5025475;28;115808;-75
2022/10/22 05:34:43;;;;;;;8.85;4.70;;;4.20;1.00;;;4.54;94.91;99236.56;5021958;28;130264;-76
2022/10/22 05:37:11;;;;;;;8.77;4.70;;;4.20;1.00;;;4.54;94.93;99238.47;5024628;28;128654;-76
2022/10/22 05:39:41;;;;;;;10.95;5.30;;;4.30;1.00;;;4.60;94.34;99238.16;5006806;28;118491;-77
2022/10/22 05:42:10;;;;;;;9.57;5.00;;;4.30;1.00;;;4.67;94.37;99235.97;5021401;28;115608;-73
2022/10/22 05:44:39;;;;;;;9.38;5.40;;;4.30;1.00;;;4.68;93.74;99237.56;5022196;28;129391;-75
2022/10/22 05:47:08;;;;;;;9.27;4.65;;;4.40;1.00;;;4.72;93.26;99232.44;5020506;28;129596;-74
2022/10/22 05:49:37;;;;;;;10.10;5.60;;;4.40;1.00;;;4.77;92.60;99235.09;5005360;28;118012;-75
2022/10/22 05:52:06;;;;;;;10.90;5.25;;;4.40;1.00;;;4.73;92.75;99227.88;5040426;27;114595;-72
2022/10/22 05:54:34;;;;;;;8.50;5.13;;;4.40;1.00;;;4.73;92.07;99227.88;5037275;27;129774;-73
2022/10/22 05:57:04;;;;;;;9.77;4.50;;;4.40;1.00;;;4.75;92.17;99226.50;5022633;28;129725;-74
2022/10/22 05:59:32;;;;;;;13.48;4.65;;;4.40;1.00;;;4.72;91.83;99224.38;5024319;28;118762;-74
2022/10/22 06:02:01;;;;;;;7.63;4.70;;;4.40;1.00;;;4.72;92.22;99220.88;5017887;28;115251;-74
2022/10/22 06:04:30;;;;;;;8.93;4.70;;;4.40;1.00;;;4.80;92.61;99217.59;5018955;28;129703;-75
2022/10/22 06:06:58;;;;;;;8.23;5.00;;;4.50;1.00;;;4.85;92.01;99217.56;5017626;28;129420;-75
2022/10/22 06:09:30;;;;;;;11.77;5.00;;;4.50;1.00;;;4.96;91.13;99221.78;5022207;28;119032;-75
2022/10/22 06:12:00;;;;;;;8.48;4.82;;;4.50;1.00;;;4.95;90.83;99230.13;5021918;28;115239;-75
2022/10/22 06:14:31;;;;;;;10.15;5.35;;;4.50;1.00;;;5.01;90.88;99231.69;5021844;28;129819;-73
2022/10/22 06:17:00;;;;;;;7.55;4.65;;;4.60;1.00;;;5.12;90.28;99235.09;5022407;27;129822;-74
2022/10/22 06:19:30;;;;;;;8.77;5.05;;;4.60;1.00;;;5.07;90.16;99235.16;5040990;27;118235;-75
2022/10/22 06:21:58;;;;;;;9.65;5.45;;;4.60;1.00;;;4.96;90.04;99245.97;5023156;28;115831;-73
2022/10/22 06:24:27;;;;;;;12.30;5.18;;;4.60;1.00;;;5.01;90.27;99229.78;5022468;28;129141;-74
2022/10/22 06:26:55;;;;;;;11.85;5.38;;;4.60;1.00;;;5.10;89.43;99242.66;5020954;28;129912;-75
2022/10/22 06:29:24;;;;;;;11.40;5.65;;;4.70;1.00;;;5.20;89.20;99239.88;5021950;28;120104;-75
2022/10/22 06:31:54;;;;;;;13.40;6.28;;;4.70;1.00;;;5.25;88.64;99245.22;5004179;28;114237;-74
2022/10/22 06:34:22;;;;;;;11.80;5.25;;;4.70;1.00;;;5.30;88.34;99231.72;4999359;28;130019;-74
2022/10/22 06:36:51;;;;;;;14.20;5.88;;;4.80;1.00;;;5.36;87.54;99227.91;5000640;28;130149;-73
2022/10/22 06:39:20;;;;;;;10.85;6.35;;;4.90;1.00;;;5.42;87.22;99219.78;5003585;28;117424;-74
2022/10/22 06:41:48;;;;;;;9.45;5.40;;;4.90;1.00;;;5.45;86.45;99216.50;5030302;27;114364;-75
2022/10/22 06:44:20;;;;;;;10.70;5.05;;;4.90;1.00;;;5.51;85.94;99215.38;5000813;28;129976;-75
2022/10/22 06:46:51;;;;;;;9.85;5.50;;;5.00;1.00;;;5.58;86.17;99215.84;5009166;28;129648;-75
2022/10/22 06:49:21;;;;;;;11.63;5.60;;;5.00;1.00;;;5.62;85.54;99216.88;5006532;28;118281;-75
2022/10/22 06:51:51;;;;;;;12.05;5.63;;;5.00;1.00;;;5.56;85.69;99209.94;5023716;28;114244;-74
2022/10/22 06:54:19;;;;;;;11.20;6.25;;;5.00;1.00;;;5.69;85.62;99208.47;5022870;28;129408;-75
2022/10/22 06:56:48;;;;;;;9.38;5.05;;;5.20;1.00;;;5.79;85.07;99210.25;5004543;28;128649;-75
2022/10/22 06:59:16;;;;;;;10.57;5.72;;;5.20;1.00;;;5.86;84.73;99208.00;5023171;28;118132;-75
2022/10/22 07:01:45;;;;;;;12.35;6.28;;;5.30;1.00;;;5.92;83.50;99214.94;5021717;27;114502;-74
2022/10/22 07:04:13;;;;;;;15.02;6.53;;;5.30;1.00;;;5.93;83.38;99211.94;5051027;27;130725;-76
2022/10/22 07:06:44;;;;;;;13.63;6.45;;;5.30;1.00;;;6.01;82.83;99212.44;5021260;28;130847;-74
2022/10/22 07:09:12;;;;;;;13.80;6.95;;;5.30;1.00;;;6.06;82.71;99209.69;5006476;28;117791;-73
2022/10/22 07:11:43;;;;;;;15.50;7.18;;;5.40;1.00;;;6.18;82.41;99212.75;5021097;28;115716;-76
2022/10/22 07:14:14;;;;;;;11.95;7.90;;;5.40;1.00;;;6.20;82.20;99205.22;5023113;28;129720;-74
2022/10/22 07:16:44;;;;;;;13.50;7.47;;;5.40;1.00;;;6.18;81.92;99212.75;5022599;28;128726;-76
2022/10/22 07:19:13;;;;;;;14.52;7.40;;;5.40;1.00;;;6.15;82.10;99207.94;5020089;28;118932;-74
2022/10/22 07:21:43;;;;;;;12.95;7.13;;;5.40;1.00;;;6.26;81.57;99211.31;5021630;28;115748;-75
2022/10/22 07:24:12;;;;;;;15.75;7.43;;;5.40;1.00;;;6.37;80.94;99204.69;5022646;28;128772;-74
2022/10/22 07:26:40;;;;;;;15.05;7.20;;;5.50;1.00;;;6.47;80.37;99199.16;5005702;28;129268;-75
2022/10/22 07:29:09;;;;;;;13.35;7.40;;;5.60;1.00;;;6.67;80.22;99199.97;5024359;28;119759;-74
2022/10/22 07:31:38;;;;;;;13.80;6.68;;;5.80;1.00;;;6.86;78.55;99199.13;5026590;28;113893;-74
2022/10/22 07:34:06;;;;;;;12.00;6.53;;;5.90;1.00;;;6.82;78.13;99194.34;5028740;28;128978;-75
2022/10/22 07:36:35;;;;;;;12.15;6.10;;;5.80;1.00;;;6.69;78.58;99197.78;5026733;28;129485;-74
2022/10/22 07:39:05;;;;;;;13.30;6.10;;;5.70;1.00;;;6.64;78.63;99195.16;5024836;28;119445;-74
2022/10/22 07:41:34;;;;;;;11.68;6.20;;;5.70;1.00;;;6.57;78.94;99189.31;5044410;27;116109;-75
2022/10/22 07:44:03;;;;;;;12.23;6.70;;;5.60;1.00;;;6.45;79.44;99185.19;5024362;28;129586;-76
2022/10/22 07:46:38;;;;;;;18.13;9.20;;;5.50;1.00;;;6.45;79.68;99181.66;5024139;28;129601;-74
2022/10/22 07:49:07;;;;;;;11.57;6.88;;;5.50;1.00;;;6.49;79.78;99180.00;5024567;28;118927;-74
2022/10/22 07:51:35;;;;;;;15.23;6.53;;;5.60;1.00;;;6.51;79.46;99174.31;5024339;28;115213;-73
2022/10/22 07:54:05;;;;;;;12.85;6.53;;;5.60;1.00;;;6.56;79.22;99174.25;5024225;28;131949;-73
2022/10/22 07:56:34;;;;;;;10.88;6.65;;;5.60;1.00;;;6.60;79.06;99169.88;5025620;28;129331;-73
2022/10/22 07:59:02;;;;;;;11.25;6.32;;;5.70;1.00;;;6.64;78.60;99177.09;5024106;28;119628;-73
2022/10/22 08:01:31;;;;;;;12.13;6.38;;;5.80;1.00;;;6.70;78.14;99169.72;5024369;28;116109;-73
2022/10/22 08:03:59;;;;;;;12.30;7.05;;;5.70;1.00;;;6.79;77.62;99173.34;5023676;28;129344;-73
2022/10/22 08:06:28;;;;;;;17.08;7.35;;;5.80;1.00;;;6.79;78.54;99176.06;5023684;28;129151;-76
2022/10/22 08:08:56;;;;;;;11.88;7.03;;;5.80;1.00;;;6.92;77.41;99181.78;5024112;28;119407;-74
2022/10/22 08:11:26;;;;;;;10.73;6.53;;;5.90;1.00;;;7.01;76.79;99178.13;5024026;28;114841;-74
2022/10/22 08:13:55;;;;;;;13.57;7.20;;;6.00;1.00;;;7.13;76.37;99174.16;5016974;28;128784;-74
2022/10/22 08:16:23;;;;;;;12.70;6.90;;;6.00;1.00;;;7.29;75.98;99175.50;5005507;28;128436;-75
2022/10/22 08:18:52;;;;;;;13.85;7.00;;;6.20;1.00;;;7.38;75.90;99170.19;5002717;28;119457;-74
2022/10/22 08:21:21;;;;;;;12.40;7.10;;;6.30;1.00;;;7.44;74.89;99173.59;5004050;28;115064;-73
2022/10/22 08:23:49;;;;;;;10.95;6.95;;;6.30;1.00;;;7.55;74.67;99178.50;5004130;28;129946;-74
2022/10/22 08:26:18;;;;;;;15.95;7.88;;;6.40;1.00;;;7.69;74.34;99177.72;5005214;28;128534;-74
2022/10/22 08:28:48;;;;;;;15.93;7.30;;;6.50;1.00;;;7.81;73.20;99179.94;5005476;28;118378;-75
2022/10/22 08:31:16;;;;;;;11.27;6.63;;;6.60;1.00;;;7.97;72.96;99183.13;5003527;28;115071;-75
2022/10/22 08:33:44;;;;;;;12.00;6.93;;;6.80;1.00;;;8.13;72.90;99189.78;5003026;28;130106;-75
2022/10/22 08:36:14;;;;;;;11.23;6.57;;;6.90;1.00;;;8.16;71.57;99191.88;5003115;28;129674;-74
2022/10/22 08:38:42;;;;;;;12.65;6.80;;;6.80;1.00;;;8.19;72.07;99185.88;5005243;28;117775;-75
2022/10/22 08:41:14;;;;;;;13.68;7.25;;;6.80;1.00;;;8.32;71.74;99188.88;5005182;28;115175;-74
2022/10/22 08:44:28;;;;;;;14.43;7.78;;;7.00;1.00;;;8.28;71.37;99189.47;5002974;28;130433;-74
2022/10/22 08:47:16;;;;;;;12.35;7.07;;;7.00;1.00;;;8.27;71.43;99187.06;5003083;28;129493;-74
2022/10/22 08:49:44;;;;;;;14.43;8.15;;;6.90;1.00;;;8.37;71.32;99183.38;5004428;28;118000;-74
2022/10/22 08:52:17;;;;;;;13.93;7.25;;;7.10;1.00;;;8.48;71.00;99192.06;5001935;28;116279;-75
2022/10/22 08:54:52;;;;;;;14.23;7.53;;;7.10;1.00;;;8.46;70.66;99189.66;4987893;28;130214;-74
2022/10/22 08:57:46;;;;;;;17.05;7.28;;;7.10;1.00;;;8.54;70.27;99191.66;5002670;28;129243;-74
2022/10/22 09:00:20;;;;;;;14.88;7.53;;;7.20;1.00;;;8.51;70.20;99192.25;5035204;27;119190;-73
2022/10/22 09:03:06;;;;;;;13.88;7.43;;;7.10;1.00;;;8.59;69.36;99194.22;5003212;28;115345;-74
2022/10/22 09:05:46;;;;;;;12.90;7.35;;;7.20;1.00;;;8.71;69.16;99192.88;4987502;28;130010;-74
2022/10/22 09:08:19;;;;;;;13.27;7.15;;;7.40;1.00;;;8.90;68.65;99188.09;5002754;28;130342;-73
2022/10/22 09:10:53;;;;;;;14.20;7.25;;;7.40;1.00;;;9.00;68.20;99182.44;5004734;28;117436;-73
2022/10/22 09:13:23;;;;;;;12.32;6.53;;;7.50;1.00;;;9.02;68.33;99178.63;5001509;28;115072;-75
2022/10/22 09:15:57;;;;;;;13.57;7.93;;;7.60;1.00;;;9.09;68.09;99185.19;4987369;28;128949;-75
2022/10/22 09:18:39;;;;;;;11.38;6.93;;;7.70;1.00;;;9.14;67.07;99186.97;5002590;28;130047;-74
2022/10/22 09:21:19;;;;;;;12.75;6.47;;;7.70;1.00;;;9.26;66.47;99189.13;5003001;28;118743;-78
2022/10/22 09:24:04;;;;;;;14.68;7.60;;;7.80;1.00;;;9.38;65.87;99192.06;5003407;28;115300;-77
2022/10/22 09:26:37;;;;;;;14.82;7.25;;;7.90;1.00;;;9.54;65.06;99190.53;5004744;28;129610;-75
2022/10/22 09:29:07;;;;;;;12.35;7.38;;;7.90;1.00;;;9.61;65.37;99187.38;4988062;28;129187;-76
2022/10/22 09:31:37;;;;;;;12.25;7.22;;;7.90;1.00;;;9.64;64.33;99184.03;5001563;28;120029;-74
2022/10/22 09:34:06;;;;;;;16.13;7.63;;;7.90;1.00;;;9.76;64.40;99179.97;5005013;28;115004;-78
2022/10/22 09:36:35;;;;;;;11.40;6.18;;;8.10;1.00;;;9.80;64.05;99178.19;5002862;28;130472;-75
2022/10/22 09:39:04;;;;;;;11.07;6.20;;;7.90;1.00;;;9.82;63.77;99184.13;5002259;28;129659;-74
2022/10/22 09:41:33;;;;;;;17.02;7.80;;;7.90;1.00;;;9.93;63.95;99180.00;5002586;28;118844;-73
2022/10/22 09:44:01;;;;;;;14.35;6.80;;;8.10;1.00;;;9.91;63.93;99182.25;5004746;28;115315;-75
2022/10/22 09:46:38;;;;;;;11.68;7.00;;;8.20;1.00;;;9.87;64.17;99175.84;4986906;28;129489;-75
2022/10/22 09:49:12;;;;;;;;;;;8.20;1.00;;;9.62;63.53;99167.31;5002256;28;130118;-75
2022/10/22 09:51:50;;;;;;;11.73;5.93;;;8.00;1.00;;;9.61;64.33;99167.63;4986035;28;118825;-75
2022/10/22 09:54:21;;;;;;;14.57;6.80;;;8.00;1.00;;;9.54;64.75;99163.44;5002656;28;115738;-74
2022/10/22 09:57:03;;;;;;;11.45;6.20;;;8.00;1.00;;;9.51;64.98;99158.66;5001615;28;130276;-76
2022/10/22 09:59:37;;;;;;;12.13;6.10;;;7.90;1.00;;;9.52;65.09;99151.31;5003623;28;128353;-74
2022/10/22 10:02:13;;;;;;;11.30;6.78;;;7.90;1.00;;;9.45;65.25;99153.69;5010903;27;119293;-74
2022/10/22 10:04:48;;;;;;;14.68;6.30;;;7.80;1.00;;;9.55;65.52;99153.41;5003812;28;115570;-74
2022/10/22 10:07:19;;;;;;;11.70;6.53;;;8.00;1.00;;;9.81;65.15;99160.84;5010823;27;129576;-75
2022/10/22 10:09:50;;;;;;;9.55;6.15;;;8.20;1.00;;;9.80;65.01;99164.66;5021597;28;129588;-76
2022/10/22 10:12:36;;;;;;;11.18;6.40;;;8.30;1.00;;;9.89;64.60;99157.34;5023471;28;118907;-74
2022/10/22 10:15:20;;;;;;;13.68;6.35;;;8.30;1.00;;;9.99;64.42;99157.06;5022349;28;115891;-75
2022/10/22 10:18:01;;;;;;;9.88;6.20;;;8.40;1.00;;;9.96;64.18;99141.44;5023546;28;130172;-75
2022/10/22 10:20:41;;;;;;;14.60;6.95;;;8.20;1.00;;;10.20;63.80;99140.19;5021726;28;129541;-75
2022/10/22 10:23:22;;;;;;;12.15;6.65;;;8.50;1.00;;;10.28;63.27;99142.09;5024165;28;118840;-73
2022/10/22 10:25:59;;;;;;;10.50;6.60;;;8.60;1.00;;;10.04;64.55;99137.94;5021428;28;115379;-74
2022/10/22 10:29:00;;;;;;;10.60;6.05;;;8.50;1.00;;;10.21;63.97;99136.38;5021286;28;130484;-75
2022/10/22 10:31:42;;;;;;;13.13;6.90;;;8.60;1.00;;;10.48;63.08;99131.78;5021419;28;130088;-76
2022/10/22 10:34:25;;;;;;;17.20;7.22;;;8.80;1.00;;;10.67;62.73;99124.09;5020156;28;119103;-74
2022/10/22 10:37:06;;;;;;;10.73;6.50;;;8.90;1.00;;;10.61;62.65;99122.66;5020090;28;116158;-74
2022/10/22 10:40:00;;;;;;;12.15;7.50;;;8.90;1.00;;;10.50;62.80;99113.25;5019666;28;130089;-73
2022/10/22 10:42:36;;;;;;;14.07;7.35;;;8.80;1.00;;;10.42;63.09;99110.25;5021878;28;129264;-74
2022/10/22 10:45:17;;;;;;;12.88;6.55;;;8.80;1.00;;;10.05;63.16;99112.41;5021955;28;118801;-74
2022/10/22 10:48:21;;;;;;;14.00;8.13;;;8.50;1.00;;;10.11;63.15;99104.13;5021727;28;115262;-75
2022/10/22 10:51:04;;;;;;;14.95;7.63;;;8.50;1.00;;;9.89;64.14;99103.97;5021470;28;130477;-75